Time;durP1;ratioP1;P1;durP2;ratioP2;P2;SDS_P1;SDS_P2;PMS_P1;PMS_P2;Temp;Humidity;BMP_temperature;BMP_pressure;BME280_temperature;BME280_humidity;BME280_pressure;Samples;Min_cycle;Max_cycle;Signal;HPM_P1;HPM_P2
2021/01/13 00:00:50;;;;;;;37.83;16.08;;;;;;;-2.18;80.72;98950.84;3508410;28;20059;-52
2021/01/13 00:02:32;;;;;;;33.80;13.95;;;;;;;-2.16;80.92;98948.38;3507602;28;20055;-51
2021/01/13 00:04:14;;;;;;;37.85;15.77;;;;;;;-2.17;80.31;98942.44;3510956;28;20504;-51
2021/01/13 00:05:56;;;;;;;34.92;16.08;;;;;;;-2.15;80.58;98939.97;3508722;28;20044;-50
2021/01/13 00:07:37;;;;;;;42.20;16.10;;;;;;;-2.15;80.48;98945.06;3507447;28;20044;-49
2021/01/13 00:09:20;;;;;;;33.72;16.15;;;;;;;-2.17;80.12;98936.50;3510787;28;20657;-53
2021/01/13 00:11:02;;;;;;;43.55;17.48;;;;;;;-2.18;80.37;98935.59;3502995;28;20087;-52
2021/01/13 00:12:43;;;;;;;41.63;16.60;;;;;;;-2.19;80.27;98932.97;3497007;28;20056;-51
2021/01/13 00:14:25;;;;;;;42.50;16.25;;;;;;;-2.20;80.63;98934.66;3509080;28;20048;-51
2021/01/13 00:16:07;;;;;;;41.88;16.23;;;;;;;-2.19;80.74;98928.78;3508525;28;20557;-49
2021/01/13 00:17:50;;;;;;;42.10;17.15;;;;;;;-2.20;80.91;98921.94;3510896;28;20052;-52
2021/01/13 00:19:32;;;;;;;43.08;16.85;;;;;;;-2.19;80.93;98925.34;3508671;28;20055;-51
2021/01/13 00:21:13;;;;;;;45.20;15.73;;;;;;;-2.19;80.59;98923.72;3510008;28;20055;-49
2021/01/13 00:22:55;;;;;;;37.53;16.02;;;;;;;-2.19;80.42;98921.16;3510541;28;20420;-51
2021/01/13 00:24:38;;;;;;;43.33;16.25;;;;;;;-2.18;80.81;98912.72;3508674;28;20047;-49
2021/01/13 00:26:21;;;;;;;37.23;15.87;;;;;;;-2.17;80.67;98916.16;3508433;28;20048;-52
2021/01/13 00:28:03;;;;;;;43.03;15.90;;;;;;;-2.17;80.75;98913.63;3510526;28;20281;-52
2021/01/13 00:29:45;;;;;;;48.08;16.02;;;;;;;-2.17;80.64;98913.63;3508563;28;20052;-53
2021/01/13 00:31:27;;;;;;;37.00;15.48;;;;;;;-2.19;80.86;98908.47;3508257;28;20051;-51
2021/01/13 00:33:08;;;;;;;31.92;15.50;;;;;;;-2.19;80.98;98897.41;3510455;28;20544;-48
2021/01/13 00:34:50;;;;;;;33.88;15.10;;;;;;;-2.19;81.21;98895.75;3507092;28;20044;-49
2021/01/13 00:36:32;;;;;;;38.00;16.20;;;;;;;-2.17;81.28;98890.75;3509828;28;20497;-53
2021/01/13 00:38:13;;;;;;;34.78;15.85;;;;;;;-2.17;81.25;98886.53;3499454;28;20056;-50
2021/01/13 00:39:56;;;;;;;36.97;15.75;;;;;;;-2.15;81.15;98887.50;3498963;28;20500;-52
2021/01/13 00:41:39;;;;;;;33.80;15.70;;;;;;;-2.14;81.20;98886.72;3510443;28;20135;-50
2021/01/13 00:43:21;;;;;;;44.60;17.77;;;;;;;-2.13;81.06;98890.13;3500289;28;20517;-51
2021/01/13 00:45:03;;;;;;;39.35;15.95;;;;;;;-2.13;80.63;98879.94;3498005;28;20277;-52
2021/01/13 00:46:45;;;;;;;40.20;16.60;;;;;;;-2.15;81.09;98872.25;3496576;28;20114;-52
2021/01/13 00:48:27;;;;;;;34.67;15.48;;;;;;;-2.14;81.12;98874.00;3502462;28;20040;-51
2021/01/13 00:50:10;;;;;;;35.70;14.38;;;;;;;-2.14;81.18;98868.94;3510106;28;20052;-52
2021/01/13 00:51:52;;;;;;;40.03;16.87;;;;;;;-2.14;81.28;98875.66;3508056;28;20056;-54
2021/01/13 00:53:33;;;;;;;40.83;16.25;;;;;;;-2.13;81.34;98869.78;3506801;28;20041;-48
2021/01/13 00:55:16;;;;;;;36.03;15.02;;;;;;;-2.12;81.08;98871.53;3496489;28;20155;-52
2021/01/13 00:56:59;;;;;;;38.90;16.55;;;;;;;-2.12;81.38;98863.94;3507491;28;20044;-52
2021/01/13 00:58:41;;;;;;;41.20;16.58;;;;;;;-2.14;81.15;98868.03;3507241;28;20087;-52
2021/01/13 01:00:23;;;;;;;33.35;14.73;;;;;;;-2.14;81.20;98868.03;3509961;28;20055;-52
2021/01/13 01:02:12;;;;;;;37.35;15.77;;;;;;;-2.14;81.11;98862.94;3508221;28;20054;-49
2021/01/13 01:03:55;;;;;;;33.35;14.55;;;;;;;-2.13;81.17;98860.50;3509439;28;20071;-49
2021/01/13 01:05:37;;;;;;;40.00;15.85;;;;;;;-2.13;81.59;98865.56;3497014;28;20079;-51
2021/01/13 01:07:18;;;;;;;31.08;14.77;;;;;;;-2.13;81.26;98863.03;3503461;28;20051;-50
2021/01/13 01:09:00;;;;;;;42.33;17.35;;;;;;;-2.13;81.34;98860.50;3509885;28;20055;-49
2021/01/13 01:10:43;;;;;;;32.22;15.50;;;;;;;-2.13;81.48;98869.78;3509709;28;20058;-50
2021/01/13 01:12:25;;;;;;;36.57;15.63;;;;;;;-2.14;80.89;98870.56;3509542;28;20397;-52
2021/01/13 01:14:09;;;;;;;35.83;15.07;;;;;;;-2.14;81.32;98871.47;3508265;28;20278;-52
2021/01/13 01:15:51;;;;;;;39.47;17.27;;;;;;;-2.14;81.08;98873.09;3497539;28;20056;-51
2021/01/13 01:17:33;;;;;;;32.33;14.45;;;;;;;-2.13;81.29;98872.31;3501470;28;20039;-50
2021/01/13 01:19:15;;;;;;;37.92;15.30;;;;;;;-2.12;80.81;98866.47;3509358;28;20062;-48
2021/01/13 01:20:57;;;;;;;35.78;15.35;;;;;;;-2.13;81.03;98870.66;3507693;28;20044;-52
2021/01/13 01:22:49;;;;;;;34.17;15.18;;;;;;;-2.12;81.29;98866.47;3507602;28;20048;-50
2021/01/13 01:24:31;;;;;;;34.30;14.32;;;;;;;-2.13;80.86;98862.16;3510039;28;20467;-49
2021/01/13 01:26:13;;;;;;;36.20;16.17;;;;;;;-2.14;80.97;98851.13;3508535;28;20055;-51
2021/01/13 01:27:56;;;;;;;37.33;15.70;;;;;;;-2.14;81.04;98837.53;3504223;28;20432;-49
2021/01/13 01:29:39;;;;;;;32.63;14.32;;;;;;;-2.13;81.30;98839.31;3496117;28;20052;-51
2021/01/13 01:31:20;;;;;;;31.27;13.73;;;;;;;-2.13;81.00;98835.09;3506324;28;20055;-51
2021/01/13 01:33:03;;;;;;;34.05;15.18;;;;;;;-2.12;80.94;98841.06;3507922;28;20048;-49
2021/01/13 01:34:44;;;;;;;36.58;15.93;;;;;;;-2.12;81.05;98829.22;3509809;28;20059;-52
2021/01/13 01:36:26;;;;;;;33.85;15.85;;;;;;;-2.12;80.98;98820.72;3506585;28;20043;-51
2021/01/13 01:38:08;;;;;;;31.77;15.05;;;;;;;-2.13;81.09;98814.75;3508663;28;20056;-51
2021/01/13 01:39:49;;;;;;;37.55;15.25;;;;;;;-2.14;81.03;98807.94;3497173;28;20049;-51
2021/01/13 01:41:32;;;;;;;33.03;16.20;;;;;;;-2.14;80.95;98810.50;3500838;28;20055;-51
2021/01/13 01:43:14;;;;;;;31.58;14.93;;;;;;;-2.14;81.18;98812.13;3509599;28;20075;-52
2021/01/13 01:44:56;;;;;;;27.58;13.43;;;;;;;-2.15;80.73;98812.94;3507252;28;20433;-48
2021/01/13 01:46:40;;;;;;;28.80;13.68;;;;;;;-2.17;80.81;98820.50;3506198;28;20093;-52
2021/01/13 01:48:28;;;;;;;26.40;12.88;;;;;;;-2.17;80.84;98827.25;3510088;28;20436;-52
2021/01/13 01:50:11;;;;;;;23.83;11.68;;;;;;;-2.18;80.94;98828.03;3507962;28;20052;-50
2021/01/13 01:52:06;;;;;;;20.92;11.32;;;;;;;-2.21;80.94;98818.59;3509238;28;20044;-50
2021/01/13 01:54:03;;;;;;;24.17;11.00;;;;;;;-2.22;80.64;98816.84;3509335;28;20056;-53
2021/01/13 01:55:50;;;;;;;24.67;11.73;;;;;;;-2.22;80.94;98809.22;3507759;28;20173;-50
2021/01/13 01:57:36;;;;;;;25.27;12.35;;;;;;;-2.24;80.47;98805.75;3507901;28;20052;-48
2021/01/13 01:59:27;;;;;;;26.60;11.68;;;;;;;-2.26;80.85;98805.66;3509595;28;20101;-48
2021/01/13 02:01:09;;;;;;;21.48;10.30;;;;;;;-2.27;79.97;98806.44;3496259;28;20048;-48
2021/01/13 02:03:00;;;;;;;25.40;10.90;;;;;;;-2.28;80.26;98801.31;3504032;28;20556;-49
2021/01/13 02:04:44;;;;;;;24.42;12.10;;;;;;;-2.30;79.70;98793.63;3508854;28;20052;-49
2021/01/13 02:06:31;;;;;;;;;;;;;;;-2.31;80.07;98785.91;3496944;28;20052;-52
2021/01/13 02:08:21;;;;;;;22.60;10.40;;;;;;;-2.31;79.97;98781.69;3502624;28;19931;-50
2021/01/13 02:10:07;;;;;;;22.08;12.13;;;;;;;-2.34;79.83;98775.59;3507628;28;20041;-49
2021/01/13 02:11:52;;;;;;;22.23;10.52;;;;;;;-2.35;79.94;98779.81;3496895;28;20074;-51
2021/01/13 02:13:34;;;;;;;24.30;12.20;;;;;;;-2.35;79.75;98784.00;3501999;28;20044;-52
2021/01/13 02:15:17;;;;;;;22.75;11.80;;;;;;;-2.37;79.10;98786.47;3509043;28;20056;-50
2021/01/13 02:17:03;;;;;;;25.95;12.38;;;;;;;-2.38;79.32;98781.31;3497507;28;20444;-51
2021/01/13 02:18:46;;;;;;;22.60;11.40;;;;;;;-2.40;79.18;98778.69;3502193;28;20509;-48
2021/01/13 02:20:31;;;;;;;27.97;12.67;;;;;;;-2.42;78.80;98767.59;3509070;28;20044;-51
2021/01/13 02:22:14;;;;;;;25.60;12.40;;;;;;;-2.44;79.00;98766.66;3497484;28;20293;-50
2021/01/13 02:24:23;;;;;;;24.27;11.38;;;;;;;-2.46;78.99;98766.56;3500559;28;20055;-50
2021/01/13 02:26:44;;;;;;;22.50;11.00;;;;;;;-2.47;78.98;98776.66;3506643;28;20485;-49
2021/01/13 02:28:28;;;;;;;25.58;11.75;;;;;;;-2.50;79.28;98763.78;3462396;28;20080;-50
2021/01/13 02:30:14;;;;;;;23.70;11.90;;;;;;;-2.52;78.90;98756.09;3497043;28;20056;-52
2021/01/13 02:32:05;;;;;;;28.77;13.35;;;;;;;-2.54;78.80;98754.28;3500082;28;20052;-50
2021/01/13 02:33:50;;;;;;;23.38;11.23;;;;;;;-2.55;78.60;98763.56;3495168;28;20113;-49
2021/01/13 02:35:54;;;;;;;26.00;11.60;;;;;;;-2.57;78.98;98756.66;3507505;28;20532;-51
2021/01/13 02:37:52;;;;;;;23.42;11.48;;;;;;;-2.59;78.82;98754.03;3507873;28;20451;-48
2021/01/13 02:39:36;;;;;;;22.35;12.30;;;;;;;-2.59;78.61;98753.19;3510851;28;20047;-48
2021/01/13 02:41:19;;;;;;;21.42;10.70;;;;;;;-2.60;78.21;98748.88;3511496;28;20093;-51
2021/01/13 02:43:04;;;;;;;24.75;11.43;;;;;;;-2.61;78.51;98740.41;3505447;28;20604;-49
2021/01/13 02:45:04;;;;;;;23.52;11.32;;;;;;;-2.63;78.46;98732.72;3499372;28;20056;-50
2021/01/13 02:47:06;;;;;;;24.35;12.02;;;;;;;-2.64;78.57;98736.03;3497725;28;20484;-48
2021/01/13 02:48:57;;;;;;;21.58;11.30;;;;;;;-2.65;78.40;98725.81;3507792;28;20071;-49
2021/01/13 02:50:42;;;;;;;23.90;11.32;;;;;;;-2.66;78.15;98734.22;3508161;28;20595;-49
2021/01/13 02:52:25;;;;;;;23.75;10.75;;;;;;;-2.68;78.79;98734.13;3512050;28;20101;-52
2021/01/13 02:54:18;;;;;;;23.85;11.40;;;;;;;-2.67;78.85;98737.53;3509831;28;20052;-50
2021/01/13 02:56:12;;;;;;;22.77;10.60;;;;;;;-2.69;78.76;98736.59;3509385;28;20463;-48
2021/01/13 02:57:57;;;;;;;25.05;10.80;;;;;;;-2.69;78.96;98729.88;3511763;28;20052;-52
2021/01/13 02:59:43;;;;;;;24.30;11.45;;;;;;;-2.67;78.87;98737.53;3509403;28;20059;-48
2021/01/13 03:01:29;;;;;;;23.45;12.13;;;;;;;-2.67;79.13;98732.47;3508379;28;20044;-51
2021/01/13 03:03:12;;;;;;;20.27;10.00;;;;;;;-2.67;78.75;98728.28;3497756;28;20052;-49
2021/01/13 03:04:53;;;;;;;21.73;11.10;;;;;;;-2.67;78.66;98728.28;3507945;28;20048;-53
2021/01/13 03:06:43;;;;;;;25.15;11.43;;;;;;;-2.66;78.24;98731.69;3510611;28;20040;-50
2021/01/13 03:08:39;;;;;;;23.25;11.77;;;;;;;-2.67;78.55;98727.38;3497907;28;20056;-51
2021/01/13 03:10:24;;;;;;;27.63;11.43;;;;;;;-2.67;78.29;98729.94;3507015;28;20444;-53
2021/01/13 03:12:18;;;;;;;23.05;11.35;;;;;;;-2.67;78.82;98735.91;3510660;28;20040;-50
2021/01/13 03:14:13;;;;;;;23.58;11.25;;;;;;;-2.67;79.21;98728.28;3511053;28;20167;-50
2021/01/13 03:15:54;;;;;;;21.95;10.95;;;;;;;-2.67;79.01;98735.00;3510215;28;20131;-43
2021/01/13 03:18:03;;;;;;;26.25;13.60;;;;;;;-2.66;78.96;98719.84;3507815;28;20101;-44
2021/01/13 03:20:05;;;;;;;28.15;13.10;;;;;;;-2.66;78.36;98726.59;3510519;28;20135;-43
2021/01/13 03:21:55;;;;;;;24.15;11.70;;;;;;;-2.66;78.21;98724.94;3508272;28;20073;-43
2021/01/13 03:23:44;;;;;;;23.52;11.35;;;;;;;-2.66;78.78;98721.53;3507763;28;20048;-43
2021/01/13 03:25:29;;;;;;;29.23;12.85;;;;;;;-2.66;78.98;98717.31;3510705;28;20044;-44
2021/01/13 03:27:15;;;;;;;26.27;13.38;;;;;;;-2.66;78.40;98714.78;3510955;28;20409;-44
2021/01/13 03:29:00;;;;;;;27.77;13.65;;;;;;;-2.65;78.15;98711.47;3509138;28;20058;-44
2021/01/13 03:30:43;;;;;;;30.60;13.10;;;;;;;-2.66;78.18;98702.09;3507379;28;20055;-43
2021/01/13 03:32:31;;;;;;;26.23;13.13;;;;;;;-2.66;78.19;98704.63;3511401;28;20044;-44
2021/01/13 03:34:29;;;;;;;28.95;13.25;;;;;;;-2.67;78.29;98702.91;3500828;28;20056;-43
2021/01/13 03:36:19;;;;;;;27.10;13.52;;;;;;;-2.70;78.24;98701.88;3501130;28;20049;-43
2021/01/13 03:38:01;;;;;;;24.02;12.60;;;;;;;-2.71;78.94;98700.97;3510892;28;20060;-43
2021/01/13 03:39:44;;;;;;;26.65;13.25;;;;;;;-2.73;78.72;98704.25;3509297;28;20102;-45
2021/01/13 03:41:37;;;;;;;29.90;13.48;;;;;;;-2.72;78.60;98691.66;3508635;28;20109;-43
2021/01/13 03:43:21;;;;;;;30.38;13.55;;;;;;;-2.73;78.53;98689.88;3511377;28;20056;-43
2021/01/13 03:45:07;;;;;;;32.70;14.85;;;;;;;-2.73;78.77;98687.34;3507506;28;20505;-44
2021/01/13 03:46:49;;;;;;;29.67;14.13;;;;;;;-2.73;78.23;98683.94;3508928;28;20075;-44
2021/01/13 03:48:45;;;;;;;29.88;14.90;;;;;;;-2.74;78.29;98685.63;3510364;28;20060;-44
2021/01/13 03:50:36;;;;;;;36.42;14.95;;;;;;;-2.76;78.23;98678.72;3508864;28;20048;-44
2021/01/13 03:52:18;;;;;;;30.92;14.50;;;;;;;-2.77;78.50;98677.00;3509004;28;20071;-44
2021/01/13 03:54:03;;;;;;;30.10;14.43;;;;;;;-2.78;78.51;98672.69;3511182;28;20048;-44
2021/01/13 03:55:45;;;;;;;36.13;16.02;;;;;;;-2.79;78.64;98676.00;3501529;28;20125;-44
2021/01/13 03:57:47;;;;;;;29.80;14.40;;;;;;;-2.76;78.30;98668.56;3498401;28;20052;-44
2021/01/13 03:59:51;;;;;;;32.70;13.73;;;;;;;-2.79;78.45;98668.41;3497096;28;20052;-45
2021/01/13 04:01:56;;;;;;;33.65;14.77;;;;;;;-2.81;78.89;98661.59;3509277;28;20106;-44
2021/01/13 04:03:52;;;;;;;33.55;14.75;;;;;;;-2.82;78.61;98652.22;3508807;28;20040;-44
2021/01/13 04:05:40;;;;;;;33.10;14.50;;;;;;;-2.82;78.92;98658.97;3508663;28;20044;-44
2021/01/13 04:07:23;;;;;;;28.88;12.98;;;;;;;-2.82;79.29;98651.38;3497346;28;20055;-44
2021/01/13 04:09:08;;;;;;;32.30;15.48;;;;;;;-2.82;79.29;98648.81;3499022;28;20044;-43
2021/01/13 04:10:50;;;;;;;30.52;14.52;;;;;;;-2.81;78.84;98645.50;3499694;28;20565;-44
2021/01/13 04:12:38;;;;;;;34.05;15.52;;;;;;;-2.81;79.26;98638.75;3510781;28;20056;-44
2021/01/13 04:14:29;;;;;;;31.80;15.50;;;;;;;-2.82;79.03;98639.53;3507236;28;20097;-44
2021/01/13 04:16:12;;;;;;;31.80;14.13;;;;;;;-2.81;79.08;98640.44;3508866;28;20577;-44
2021/01/13 04:17:54;;;;;;;31.60;14.38;;;;;;;-2.80;78.97;98637.09;3497088;28;20052;-44
2021/01/13 04:19:36;;;;;;;38.78;15.68;;;;;;;-2.80;78.79;98639.63;3505015;28;20104;-45
2021/01/13 04:21:21;;;;;;;35.22;15.68;;;;;;;-2.80;78.95;98642.16;3509779;28;20475;-51
2021/01/13 04:23:04;;;;;;;34.05;15.15;;;;;;;-2.79;78.86;98650.63;3496380;28;20432;-51
2021/01/13 04:24:48;;;;;;;32.17;14.60;;;;;;;-2.80;79.05;98649.78;3505696;28;20048;-49
2021/01/13 04:26:30;;;;;;;;;;;;;;;-2.82;79.02;98649.69;3508606;28;20049;-49
2021/01/13 04:28:12;;;;;;;29.55;13.52;;;;;;;-2.81;79.33;98648.06;3509935;28;19981;-52
2021/01/13 04:29:55;;;;;;;27.75;13.10;;;;;;;-2.82;79.47;98644.63;3506965;28;20393;-51
2021/01/13 04:31:37;;;;;;;28.45;13.52;;;;;;;-2.82;78.87;98647.16;3507367;28;20504;-51
2021/01/13 04:33:19;;;;;;;31.77;14.23;;;;;;;-2.82;79.03;98644.63;3508663;28;20189;-53
2021/01/13 04:35:02;;;;;;;30.88;14.45;;;;;;;-2.81;78.92;98642.97;3507209;28;20436;-50
2021/01/13 04:36:49;;;;;;;29.17;14.25;;;;;;;-2.82;79.22;98644.63;3510369;28;20047;-49
2021/01/13 04:38:32;;;;;;;31.85;14.77;;;;;;;-2.82;79.15;98641.22;3508773;28;20074;-51
2021/01/13 04:40:31;;;;;;;27.70;13.25;;;;;;;-2.83;78.95;98640.34;3509677;28;20424;-52
2021/01/13 04:42:13;;;;;;;38.42;14.57;;;;;;;-2.82;78.95;98644.63;3508546;28;20063;-50
2021/01/13 04:43:57;;;;;;;31.00;13.48;;;;;;;-2.84;78.41;98643.69;3509943;28;20056;-51
2021/01/13 04:45:40;;;;;;;29.00;14.07;;;;;;;-2.85;78.75;98643.59;3508213;28;20489;-51
2021/01/13 04:47:40;;;;;;;27.98;13.13;;;;;;;-2.85;79.01;98636.88;3510740;28;20071;-49
2021/01/13 04:49:25;;;;;;;23.48;12.13;;;;;;;-2.87;78.53;98633.38;3497762;28;20505;-52
2021/01/13 04:51:13;;;;;;;28.45;14.40;;;;;;;-2.87;78.93;98624.88;3501216;28;20044;-48
2021/01/13 04:52:59;;;;;;;25.50;12.07;;;;;;;-2.88;79.03;98615.53;3509727;28;20505;-53
2021/01/13 04:54:43;;;;;;;25.80;12.43;;;;;;;-2.88;79.04;98616.41;3508631;28;20056;-43
2021/01/13 04:56:25;;;;;;;;;;;;;;;-2.88;78.90;98615.53;3507591;28;20047;-44
2021/01/13 04:59:05;;;;;;;24.35;11.75;;;;;;;-2.90;79.32;98618.00;3510350;28;19924;-45
2021/01/13 05:01:07;;;;;;;26.35;11.73;;;;;;;-2.90;79.43;98627.28;3495213;28;20501;-44
2021/01/13 05:03:36;;;;;;;25.50;12.13;;;;;;;-2.91;79.15;98623.00;3508262;28;20048;-43
2021/01/13 05:05:21;;;;;;;22.50;10.98;;;;;;;-2.90;79.17;98620.56;3506889;28;20055;-44
2021/01/13 05:07:12;;;;;;;26.33;12.73;;;;;;;-2.90;79.79;98607.88;3506671;28;20086;-44
2021/01/13 05:09:04;;;;;;;21.38;10.82;;;;;;;-2.90;79.44;98618.00;3510346;28;20063;-44
2021/01/13 05:10:50;;;;;;;22.65;11.10;;;;;;;-2.89;79.34;98617.19;3509119;28;20048;-44
2021/01/13 05:12:54;;;;;;;27.00;11.75;;;;;;;-2.89;79.37;98609.59;3506518;28;20048;-44
2021/01/13 05:14:43;;;;;;;26.40;11.48;;;;;;;-2.90;79.38;98614.59;3502179;28;20056;-44
2021/01/13 05:16:27;;;;;;;23.50;11.27;;;;;;;-2.90;79.22;98617.13;3508119;28;20055;-45
2021/01/13 05:18:10;;;;;;;25.75;11.77;;;;;;;-2.91;79.36;98605.25;3504956;28;20045;-44
2021/01/13 05:20:17;;;;;;;28.60;12.43;;;;;;;-2.91;79.91;98607.78;3497667;28;20131;-44
2021/01/13 05:22:01;;;;;;;20.42;9.98;;;;;;;-2.91;79.73;98603.56;3496276;28;20056;-43
2021/01/13 05:23:44;;;;;;;25.52;10.98;;;;;;;-2.90;79.87;98612.03;3502180;28;20094;-44
2021/01/13 05:25:45;;;;;;;24.75;11.60;;;;;;;-2.92;79.59;98599.28;3503368;28;20471;-44
2021/01/13 05:27:46;;;;;;;24.83;11.15;;;;;;;-2.93;79.51;98594.16;3507898;28;20051;-44
2021/01/13 05:29:32;;;;;;;23.23;11.02;;;;;;;-2.94;79.65;98593.25;3506035;28;20051;-44
2021/01/13 05:31:24;;;;;;;24.65;12.50;;;;;;;-2.94;79.72;98597.47;3502299;28;20052;-45
2021/01/13 05:33:08;;;;;;;25.48;11.02;;;;;;;-2.95;79.83;98594.06;3510033;28;20072;-44
2021/01/13 05:34:56;;;;;;;23.40;10.57;;;;;;;-2.94;79.74;98593.25;3499013;28;20623;-43
2021/01/13 05:36:44;;;;;;;23.02;11.55;;;;;;;-2.94;79.69;98593.25;3498247;28;20425;-43
2021/01/13 05:39:03;;;;;;;23.17;12.68;;;;;;;-2.93;79.52;98592.47;3510515;28;20075;-44
2021/01/13 05:40:50;;;;;;;23.77;10.98;;;;;;;-2.92;79.96;98596.75;3508446;28;20055;-44
2021/01/13 05:42:32;;;;;;;23.75;10.90;;;;;;;-2.93;79.47;98587.41;3509009;28;20185;-44
2021/01/13 05:44:14;;;;;;;21.88;10.95;;;;;;;-2.92;79.86;98590.81;3509034;28;20070;-44
2021/01/13 05:46:08;;;;;;;26.08;11.30;;;;;;;-2.92;79.81;98589.13;3495875;28;20055;-44
2021/01/13 05:47:53;;;;;;;;;;;;;;;-2.91;79.92;98592.56;3505018;28;20139;-44
2021/01/13 05:49:35;;;;;;;22.58;10.93;;;;;;;-2.92;79.74;98585.72;3508346;28;19931;-45
2021/01/13 05:51:26;;;;;;;21.13;11.73;;;;;;;-2.93;80.04;98584.00;3507947;28;20044;-44
2021/01/13 05:53:09;;;;;;;26.33;12.18;;;;;;;-2.92;80.24;98595.88;3507729;28;20051;-44
2021/01/13 05:54:54;;;;;;;27.60;11.88;;;;;;;-2.92;79.77;98593.34;3509411;28;20063;-43
2021/01/13 05:56:37;;;;;;;24.42;11.43;;;;;;;-2.93;79.95;98591.63;3508288;28;20536;-44
2021/01/13 05:58:24;;;;;;;24.08;11.85;;;;;;;-2.93;80.04;98579.78;3506324;28;20048;-43
2021/01/13 06:00:07;;;;;;;28.35;12.13;;;;;;;-2.93;80.25;98589.94;3509502;28;20052;-44
2021/01/13 06:02:05;;;;;;;28.35;14.00;;;;;;;-2.94;79.98;98593.25;3507149;28;20104;-44
2021/01/13 06:03:49;;;;;;;22.38;11.85;;;;;;;-2.94;80.17;98583.13;3500360;28;20080;-44
2021/01/13 06:05:32;;;;;;;26.90;11.88;;;;;;;-2.94;79.90;98587.31;3496869;28;20517;-43
2021/01/13 06:07:22;;;;;;;31.08;11.88;;;;;;;-2.94;80.21;98587.31;3508585;28;20059;-43
2021/01/13 06:09:05;;;;;;;30.83;13.07;;;;;;;-2.94;80.07;98582.25;3501872;28;20060;-43
2021/01/13 06:11:01;;;;;;;28.33;12.73;;;;;;;-2.93;80.61;98592.47;3499999;28;20101;-43
2021/01/13 06:12:48;;;;;;;23.13;12.60;;;;;;;-2.92;80.42;98588.25;3497748;28;20056;-43
2021/01/13 06:14:31;;;;;;;27.42;12.43;;;;;;;-2.90;80.38;98587.56;3506277;28;20505;-43
2021/01/13 06:16:16;;;;;;;27.20;12.95;;;;;;;-2.90;80.44;98592.63;3511428;28;20444;-44
2021/01/13 06:18:00;;;;;;;31.35;13.30;;;;;;;-2.89;80.38;98585.88;3504746;28;20497;-43
2021/01/13 06:19:48;;;;;;;25.27;13.25;;;;;;;-2.90;80.62;98581.59;3509551;28;20098;-43
2021/01/13 06:21:30;;;;;;;26.63;13.20;;;;;;;-2.88;80.70;98595.22;3511576;28;20105;-43
2021/01/13 06:23:14;;;;;;;29.13;13.75;;;;;;;-2.88;81.06;98592.69;3510415;28;20052;-43
2021/01/13 06:24:58;;;;;;;31.27;12.73;;;;;;;-2.88;81.22;98593.59;3509689;28;20051;-44
2021/01/13 06:26:51;;;;;;;30.38;13.23;;;;;;;-2.87;80.67;98596.97;3511767;28;20040;-43
2021/01/13 06:29:15;;;;;;;31.10;14.25;;;;;;;-2.88;80.61;98593.59;3510146;28;20055;-43
2021/01/13 06:31:05;;;;;;;29.40;13.65;;;;;;;-2.88;80.22;98597.75;3507892;28;20090;-44
2021/01/13 06:32:53;;;;;;;29.55;14.70;;;;;;;-2.89;80.54;98589.28;3509532;28;20092;-43
2021/01/13 06:34:52;;;;;;;32.40;13.82;;;;;;;-2.89;80.58;98586.75;3511633;28;20071;-43
2021/01/13 06:36:49;;;;;;;31.13;14.00;;;;;;;-2.88;80.36;98585.97;3509196;28;20044;-43
2021/01/13 06:38:43;;;;;;;28.70;13.70;;;;;;;-2.88;80.24;98574.91;3509842;28;20055;-44
2021/01/13 06:40:25;;;;;;;29.83;13.07;;;;;;;-2.89;80.38;98571.53;3510186;28;20048;-43
2021/01/13 06:42:06;;;;;;;31.27;14.02;;;;;;;-2.88;80.56;98568.22;3499649;28;20505;-43
2021/01/13 06:44:03;;;;;;;29.45;13.73;;;;;;;-2.86;80.43;98569.16;3502825;28;20045;-43
2021/01/13 06:45:45;;;;;;;32.95;14.40;;;;;;;-2.86;80.29;98566.59;3511445;28;20048;-43
2021/01/13 06:47:27;;;;;;;33.42;14.40;;;;;;;-2.85;80.00;98565.81;3510282;28;20077;-43
2021/01/13 06:49:16;;;;;;;32.05;14.27;;;;;;;-2.84;79.81;98564.16;3508469;28;20048;-43
2021/01/13 06:50:59;;;;;;;33.85;14.50;;;;;;;-2.85;79.65;98560.75;3500079;28;20060;-43
2021/01/13 06:52:41;;;;;;;28.85;13.07;;;;;;;-2.85;79.58;98555.69;3507638;28;20082;-43
2021/01/13 06:54:23;;;;;;;33.42;14.43;;;;;;;-2.85;79.71;98560.75;3511083;28;20048;-43
2021/01/13 06:56:10;;;;;;;32.55;14.63;;;;;;;-2.86;79.91;98561.53;3511842;28;20132;-43
2021/01/13 06:57:52;;;;;;;35.33;14.95;;;;;;;-2.86;79.78;98560.66;3511021;28;20060;-43
2021/01/13 06:59:38;;;;;;;33.58;13.93;;;;;;;-2.87;79.46;98552.16;3508129;28;20489;-43
2021/01/13 07:01:20;;;;;;;35.13;14.10;;;;;;;-2.88;79.68;98560.59;3511834;28;20071;-43
2021/01/13 07:03:20;;;;;;;33.22;13.20;;;;;;;-2.87;79.70;98556.38;3509601;28;20117;-43
2021/01/13 07:05:06;;;;;;;30.73;14.30;;;;;;;-2.87;79.72;98552.16;3504787;28;20076;-43
2021/01/13 07:07:02;;;;;;;31.42;14.38;;;;;;;-2.86;79.92;98548.84;3497612;28;20091;-45
2021/01/13 07:08:44;;;;;;;31.73;14.60;;;;;;;-2.85;79.31;98553.13;3509550;28;20056;-43
2021/01/13 07:10:27;;;;;;;32.22;14.35;;;;;;;-2.84;79.40;98554.00;3509585;28;20044;-45
2021/01/13 07:12:12;;;;;;;34.83;14.98;;;;;;;-2.84;79.55;98548.91;3511126;28;20056;-43
2021/01/13 07:13:54;;;;;;;24.52;12.45;;;;;;;-2.83;79.55;98549.00;3509782;28;20055;-44
2021/01/13 07:15:39;;;;;;;36.88;15.20;;;;;;;-2.80;79.71;98550.81;3509213;28;20582;-43
2021/01/13 07:17:22;;;;;;;34.70;14.90;;;;;;;-2.78;79.64;98553.41;3511676;28;20070;-44
2021/01/13 07:19:05;;;;;;;35.30;14.63;;;;;;;-2.77;79.71;98550.94;3502319;28;20058;-44
2021/01/13 07:20:48;;;;;;;35.08;14.45;;;;;;;-2.77;79.61;98548.41;3498574;28;20452;-43
2021/01/13 07:22:30;;;;;;;31.88;14.55;;;;;;;-2.76;79.68;98547.59;3497582;28;20052;-44
2021/01/13 07:24:13;;;;;;;33.65;14.93;;;;;;;-2.75;79.53;98551.03;3504966;28;20067;-44
2021/01/13 07:25:55;;;;;;;34.97;14.63;;;;;;;-2.75;79.49;98544.28;3509437;28;20056;-43
2021/01/13 07:27:50;;;;;;;36.25;14.63;;;;;;;-2.73;79.72;98544.34;3497493;28;20044;-42
2021/01/13 07:29:32;;;;;;;32.30;15.00;;;;;;;-2.72;79.67;98552.06;3501419;28;20095;-43
2021/01/13 07:31:28;;;;;;;34.72;15.32;;;;;;;-2.69;79.50;98549.66;3509158;28;20519;-43
2021/01/13 07:33:12;;;;;;;38.58;16.23;;;;;;;-2.66;79.65;98554.00;3497391;28;20117;-42
2021/01/13 07:34:54;;;;;;;34.85;15.13;;;;;;;-2.64;79.33;98542.25;3504908;28;20056;-42
2021/01/13 07:36:40;;;;;;;30.55;15.23;;;;;;;-2.62;79.60;98533.03;3499119;28;20053;-42
2021/01/13 07:38:24;;;;;;;31.38;15.18;;;;;;;-2.59;79.45;98527.25;3507282;28;20063;-43
2021/01/13 07:40:31;;;;;;;35.70;16.00;;;;;;;-2.56;79.36;98525.72;3508799;28;20520;-44
2021/01/13 07:42:34;;;;;;;30.45;14.48;;;;;;;-2.54;79.14;98520.72;3503788;28;20064;-43
2021/01/13 07:44:38;;;;;;;36.78;17.10;;;;;;;-2.53;78.72;98524.97;3511421;28;20044;-43
2021/01/13 07:46:26;;;;;;;31.95;15.25;;;;;;;-2.53;79.01;98517.34;3508603;28;20416;-44
2021/01/13 07:48:40;;;;;;;37.00;16.23;;;;;;;-2.52;78.63;98514.03;3510184;28;20455;-43
2021/01/13 07:50:23;;;;;;;35.80;16.00;;;;;;;-2.50;78.76;98512.44;3499382;28;20052;-44
2021/01/13 07:52:09;;;;;;;35.45;15.73;;;;;;;-2.50;78.69;98509.91;3497105;28;20497;-44
2021/01/13 07:54:05;;;;;;;39.45;17.33;;;;;;;-2.49;78.68;98504.88;3508355;28;20105;-44
2021/01/13 07:55:56;;;;;;;41.40;16.95;;;;;;;-2.46;78.91;98499.06;3501377;28;20060;-45
2021/01/13 07:57:45;;;;;;;39.70;17.23;;;;;;;-2.44;78.90;98503.44;3501178;28;20420;-44
2021/01/13 07:59:42;;;;;;;40.20;17.08;;;;;;;-2.41;79.15;98497.63;3505549;28;20573;-44
2021/01/13 08:01:59;;;;;;;34.58;16.00;;;;;;;-2.38;79.19;98485.06;3503699;28;20070;-44
2021/01/13 08:04:18;;;;;;;36.90;15.95;;;;;;;-2.33;79.41;98487.81;3476865;28;20041;-44
2021/01/13 08:06:29;;;;;;;40.78;17.38;;;;;;;-2.28;79.32;98483.81;3504384;28;20043;-43
2021/01/13 08:08:12;;;;;;;37.67;17.25;;;;;;;-2.25;79.14;98484.81;3506947;28;20044;-44
2021/01/13 08:10:02;;;;;;;41.63;17.70;;;;;;;-2.23;78.49;98482.31;3506318;28;20044;-44
2021/01/13 08:12:13;;;;;;;37.25;16.92;;;;;;;-2.21;78.97;98484.94;3504560;28;20074;-44
2021/01/13 08:14:14;;;;;;;40.60;18.27;;;;;;;-2.19;78.43;98474.06;3508495;28;20044;-44
2021/01/13 08:16:36;;;;;;;42.92;19.77;;;;;;;-2.18;78.52;98470.72;3504399;28;20204;-44
2021/01/13 08:18:58;;;;;;;39.50;16.92;;;;;;;-2.15;78.18;98473.38;3507741;28;20052;-44